createdAt,value
2019-01-22T00:00:54.791Z,991.05
2019-01-22T00:01:54.951Z,991.07
2019-01-22T00:02:55.074Z,991.05
2019-01-22T00:03:55.200Z,991.04
2019-01-22T00:04:55.330Z,991.06
2019-01-22T00:05:55.522Z,991.02
2019-01-22T00:06:55.647Z,991.01
2019-01-22T00:07:55.769Z,991.05
2019-01-22T00:08:55.892Z,990.97
2019-01-22T00:09:56.019Z,990.99
2019-01-22T00:10:56.152Z,990.94
2019-01-22T00:11:56.274Z,990.94
2019-01-22T00:12:56.398Z,990.90
2019-01-22T00:13:56.515Z,990.84
2019-01-22T00:14:56.645Z,990.86
2019-01-22T00:15:56.771Z,990.84
2019-01-22T00:16:56.899Z,990.84
2019-01-22T00:17:57.124Z,990.82
2019-01-22T00:18:57.178Z,990.81
2019-01-22T00:19:57.297Z,990.80
2019-01-22T00:20:57.425Z,990.81
2019-01-22T00:21:57.546Z,990.77
2019-01-22T00:23:02.802Z,990.80
2019-01-22T00:23:57.797Z,990.77
2019-01-22T00:24:57.962Z,990.76
2019-01-22T00:25:58.078Z,990.68
2019-01-22T00:26:58.204Z,990.70
2019-01-22T00:27:58.323Z,990.70
2019-01-22T00:28:58.447Z,990.68
2019-01-22T00:29:58.573Z,990.69
2019-01-22T00:30:58.691Z,990.63
2019-01-22T00:31:58.818Z,990.63
2019-01-22T00:32:58.943Z,990.64
2019-01-22T00:33:59.072Z,990.63
2019-01-22T00:34:59.199Z,990.68
2019-01-22T00:35:59.343Z,990.61
2019-01-22T00:36:59.447Z,990.56
2019-01-22T00:37:59.570Z,990.62
2019-01-22T00:38:59.685Z,990.59
2019-01-22T00:39:59.806Z,990.58
2019-01-22T00:40:59.930Z,990.57
2019-01-22T00:42:00.054Z,990.57
2019-01-22T00:43:00.181Z,990.55
2019-01-22T00:44:00.305Z,990.54
2019-01-22T00:45:00.426Z,990.50
2019-01-22T00:46:00.554Z,990.50
2019-01-22T00:47:00.681Z,990.52
2019-01-22T00:48:00.809Z,990.54
2019-01-22T00:49:00.929Z,990.48
2019-01-22T00:50:01.056Z,990.52
2019-01-22T00:51:01.176Z,990.50
2019-01-22T00:52:01.297Z,990.49
2019-01-22T00:53:01.468Z,990.47
2019-01-22T00:54:01.593Z,990.49
2019-01-22T00:55:01.720Z,990.48
2019-01-22T00:56:01.837Z,990.45
2019-01-22T00:57:01.958Z,990.49
2019-01-22T00:58:02.082Z,990.50
2019-01-22T00:59:02.221Z,990.45
2019-01-22T01:00:02.356Z,990.41
2019-01-22T01:01:02.461Z,990.42
2019-01-22T01:02:02.598Z,990.44
2019-01-22T01:03:02.712Z,990.44
2019-01-22T01:04:02.835Z,990.44
2019-01-22T01:05:02.956Z,990.44
2019-01-22T01:06:03.082Z,990.38
2019-01-22T01:07:03.206Z,990.38
2019-01-22T01:08:03.328Z,990.38
2019-01-22T01:09:03.451Z,990.41
2019-01-22T01:10:03.598Z,990.42
2019-01-22T01:11:03.737Z,990.37
2019-01-22T01:12:03.853Z,990.35
2019-01-22T01:13:04.028Z,990.35
2019-01-22T01:14:04.102Z,990.31
2019-01-22T01:15:04.226Z,990.28
2019-01-22T01:16:04.350Z,990.26
2019-01-22T01:17:04.475Z,990.29
2019-01-22T01:18:04.597Z,990.28
2019-01-22T01:19:04.721Z,990.28
2019-01-22T01:20:04.844Z,990.32
2019-01-22T01:21:04.972Z,990.33
2019-01-22T01:22:05.091Z,990.33
2019-01-22T01:23:05.217Z,990.34
2019-01-22T01:24:05.346Z,990.29
2019-01-22T01:25:05.466Z,990.29
2019-01-22T01:26:05.592Z,990.29
2019-01-22T01:27:05.715Z,990.30
2019-01-22T01:28:05.834Z,990.23
2019-01-22T01:29:05.965Z,990.24
2019-01-22T01:30:06.086Z,990.19
2019-01-22T01:31:06.206Z,990.22
2019-01-22T01:32:06.335Z,990.21
2019-01-22T01:33:06.458Z,990.21
2019-01-22T01:34:06.580Z,990.16
2019-01-22T01:35:06.706Z,990.12
2019-01-22T01:36:06.835Z,990.10
2019-01-22T01:37:06.957Z,990.08
2019-01-22T01:38:07.088Z,990.09
2019-01-22T01:39:07.214Z,990.10
2019-01-22T01:40:07.337Z,990.05
2019-01-22T01:41:07.464Z,990.05
2019-01-22T01:42:07.585Z,990.06
2019-01-22T01:43:07.705Z,990.02
2019-01-22T01:44:07.826Z,989.98
2019-01-22T01:45:07.951Z,989.96
2019-01-22T01:46:08.075Z,990.00
2019-01-22T01:47:08.205Z,989.95
2019-01-22T01:48:08.330Z,989.95
2019-01-22T01:49:08.454Z,989.98
2019-01-22T01:50:08.582Z,989.97
2019-01-22T01:51:08.698Z,990.03
2019-01-22T01:52:08.822Z,989.97
2019-01-22T01:53:08.955Z,989.94
2019-01-22T01:54:09.080Z,989.95
2019-01-22T01:55:09.243Z,989.91
2019-01-22T01:56:09.363Z,989.90
2019-01-22T01:57:09.483Z,989.85
2019-01-22T01:58:09.613Z,989.89
2019-01-22T01:59:09.732Z,989.89
2019-01-22T02:00:09.857Z,989.86
2019-01-22T02:01:09.983Z,989.84
2019-01-22T02:02:10.101Z,989.84
2019-01-22T02:03:10.227Z,989.82
2019-01-22T02:04:10.351Z,989.76
2019-01-22T02:05:10.475Z,989.71
2019-01-22T02:06:10.594Z,989.72
2019-01-22T02:07:10.713Z,989.72
2019-01-22T02:08:10.838Z,989.71
2019-01-22T02:09:11.037Z,989.68
2019-01-22T02:10:11.033Z,989.65
2019-01-22T02:11:11.151Z,989.61
2019-01-22T02:12:11.279Z,989.59
2019-01-22T02:13:11.401Z,989.51
2019-01-22T02:14:11.523Z,989.52
2019-01-22T02:15:11.647Z,989.46
2019-01-22T02:16:11.770Z,989.43
2019-01-22T02:17:11.894Z,989.51
2019-01-22T02:18:12.020Z,989.46
2019-01-22T02:19:12.144Z,989.46
2019-01-22T02:20:12.259Z,989.43
2019-01-22T02:21:12.385Z,989.46
2019-01-22T02:22:12.513Z,989.44
2019-01-22T02:23:12.632Z,989.44
2019-01-22T02:24:12.759Z,989.47
2019-01-22T02:25:12.890Z,989.45
2019-01-22T02:26:13.009Z,989.41
2019-01-22T02:27:13.131Z,989.37
2019-01-22T02:28:13.258Z,989.42
2019-01-22T02:29:13.378Z,989.36
2019-01-22T02:30:13.487Z,989.35
2019-01-22T02:31:13.629Z,989.32
2019-01-22T02:32:13.746Z,989.33
2019-01-22T02:33:13.881Z,989.34
2019-01-22T02:34:14.004Z,989.27
2019-01-22T02:35:14.131Z,989.27
2019-01-22T02:36:14.253Z,989.23
2019-01-22T02:37:14.373Z,989.22
2019-01-22T02:38:14.497Z,989.16
2019-01-22T02:39:14.619Z,989.15
2019-01-22T02:40:14.742Z,989.15
2019-01-22T02:41:14.866Z,989.11
2019-01-22T02:42:14.990Z,989.08
2019-01-22T02:43:15.115Z,989.04
2019-01-22T02:44:15.234Z,989.05
2019-01-22T02:45:15.357Z,989.00
2019-01-22T02:46:15.483Z,989.02
2019-01-22T02:47:15.630Z,988.94
2019-01-22T02:48:15.756Z,988.98
2019-01-22T02:49:15.895Z,988.97
2019-01-22T02:50:16.015Z,988.93
2019-01-22T02:51:16.137Z,988.87
2019-01-22T02:52:16.262Z,988.90
2019-01-22T02:53:16.388Z,988.86
2019-01-22T02:54:16.511Z,988.82
2019-01-22T02:55:16.634Z,988.81
2019-01-22T02:56:16.754Z,988.83
2019-01-22T02:57:16.879Z,988.79
2019-01-22T02:58:17.000Z,988.75
2019-01-22T02:59:17.128Z,988.74
2019-01-22T03:00:17.248Z,988.81
2019-01-22T03:01:17.367Z,988.71
2019-01-22T03:02:17.502Z,988.72
2019-01-22T03:03:17.633Z,988.71
2019-01-22T03:04:17.760Z,988.68
2019-01-22T03:05:17.880Z,988.64
2019-01-22T03:06:18.007Z,988.62
2019-01-22T03:07:18.131Z,988.64
2019-01-22T03:08:18.254Z,988.59
2019-01-22T03:09:18.378Z,988.55
2019-01-22T03:10:18.500Z,988.55
2019-01-22T03:11:18.624Z,988.56
2019-01-22T03:12:18.745Z,988.53
2019-01-22T03:13:18.869Z,988.52
2019-01-22T03:14:18.998Z,988.51
2019-01-22T03:15:19.128Z,988.48
2019-01-22T03:16:19.290Z,988.47
2019-01-22T03:17:19.413Z,988.47
2019-01-22T03:18:19.540Z,988.43
2019-01-22T03:19:19.729Z,988.42
2019-01-22T03:20:19.724Z,988.38
2019-01-22T03:21:19.852Z,988.35
2019-01-22T03:22:19.973Z,988.30
2019-01-22T03:23:20.098Z,988.38
2019-01-22T03:24:20.221Z,988.33
2019-01-22T03:25:20.342Z,988.29
2019-01-22T03:26:20.470Z,988.26
2019-01-22T03:27:20.589Z,988.26
2019-01-22T03:28:20.717Z,988.24
2019-01-22T03:29:20.841Z,988.26
2019-01-22T03:30:20.967Z,988.18
2019-01-22T03:31:21.100Z,988.14
2019-01-22T03:32:21.215Z,988.20
2019-01-22T03:33:21.345Z,988.14
2019-01-22T03:34:21.462Z,988.16
2019-01-22T03:35:21.602Z,988.14
2019-01-22T03:36:21.713Z,988.11
2019-01-22T03:37:21.837Z,988.12
2019-01-22T03:38:21.958Z,988.10
2019-01-22T03:39:22.076Z,988.11
2019-01-22T03:40:22.206Z,988.05
2019-01-22T03:41:22.329Z,988.07
2019-01-22T03:42:22.455Z,988.05
2019-01-22T03:43:22.582Z,988.05
2019-01-22T03:44:22.704Z,988.11
2019-01-22T03:45:22.830Z,988.13
2019-01-22T03:46:22.954Z,988.09
2019-01-22T03:47:23.082Z,988.10
2019-01-22T03:48:23.208Z,988.11
2019-01-22T03:49:23.333Z,988.06
2019-01-22T03:50:23.460Z,988.09
2019-01-22T03:51:23.582Z,988.04
2019-01-22T03:52:23.704Z,987.99
2019-01-22T03:53:23.825Z,987.98
2019-01-22T03:54:23.953Z,987.94
2019-01-22T03:55:24.077Z,987.91
2019-01-22T03:56:24.199Z,987.95
2019-01-22T03:57:24.327Z,987.89
2019-01-22T03:58:24.447Z,987.92
2019-01-22T03:59:24.576Z,987.92
2019-01-22T04:00:24.690Z,987.89
2019-01-22T04:01:24.813Z,987.89
2019-01-22T04:02:24.947Z,987.82
2019-01-22T04:03:25.065Z,987.83
2019-01-22T04:04:25.188Z,987.82
2019-01-22T04:05:25.365Z,987.80
2019-01-22T04:06:25.437Z,987.81
2019-01-22T04:07:25.566Z,987.79
2019-01-22T04:08:25.700Z,987.79
2019-01-22T04:09:25.824Z,987.81
2019-01-22T04:10:25.951Z,987.80
2019-01-22T04:11:26.073Z,987.75
2019-01-22T04:12:26.196Z,987.78
2019-01-22T04:13:26.319Z,987.76
2019-01-22T04:14:26.439Z,987.73
2019-01-22T04:15:26.561Z,987.70
2019-01-22T04:16:26.686Z,987.74
2019-01-22T04:17:26.805Z,987.68
2019-01-22T04:18:26.930Z,987.71
2019-01-22T04:19:27.061Z,987.66
2019-01-22T04:20:27.187Z,987.61
2019-01-22T04:21:27.316Z,987.59
2019-01-22T04:22:27.437Z,987.60
2019-01-22T04:23:27.556Z,987.56
2019-01-22T04:24:27.685Z,987.57
2019-01-22T04:25:27.811Z,987.60
2019-01-22T04:26:27.936Z,987.57
2019-01-22T04:27:28.059Z,987.57
2019-01-22T04:28:28.177Z,987.48
2019-01-22T04:29:28.302Z,987.49
2019-01-22T04:30:28.428Z,987.47
2019-01-22T04:31:28.552Z,987.53
2019-01-22T04:32:28.677Z,987.49
2019-01-22T04:33:28.801Z,987.49
2019-01-22T04:34:28.923Z,987.46
2019-01-22T04:35:29.045Z,987.45
2019-01-22T04:36:29.170Z,987.46
2019-01-22T04:37:29.293Z,987.45
2019-01-22T04:38:29.417Z,987.43
2019-01-22T04:39:29.544Z,987.40
2019-01-22T04:40:29.710Z,987.39
2019-01-22T04:41:29.831Z,987.38
2019-01-22T04:42:29.949Z,987.33
2019-01-22T04:43:30.074Z,987.35
2019-01-22T04:44:30.196Z,987.36
2019-01-22T04:45:30.318Z,987.32
2019-01-22T04:46:30.445Z,987.36
2019-01-22T04:47:30.561Z,987.33
2019-01-22T04:48:30.696Z,987.34
2019-01-22T04:49:30.814Z,987.30
2019-01-22T04:50:30.938Z,987.26
2019-01-22T04:51:31.062Z,987.29
2019-01-22T04:52:31.186Z,987.35
2019-01-22T04:53:31.310Z,987.30
2019-01-22T04:54:31.436Z,987.29
2019-01-22T04:55:31.574Z,987.35
2019-01-22T04:56:31.679Z,987.32
2019-01-22T04:57:31.812Z,987.31
2019-01-22T04:58:31.933Z,987.32
2019-01-22T04:59:32.050Z,987.33
2019-01-22T05:00:32.182Z,987.32
2019-01-22T05:01:32.296Z,987.32
2019-01-22T05:02:32.423Z,987.35
2019-01-22T05:03:32.549Z,987.31
2019-01-22T05:04:32.681Z,987.31
2019-01-22T05:05:32.798Z,987.31
2019-01-22T05:06:32.924Z,987.31
2019-01-22T05:07:33.045Z,987.28
2019-01-22T05:08:33.166Z,987.30
2019-01-22T05:09:33.298Z,987.27
2019-01-22T05:10:33.422Z,987.25
2019-01-22T05:11:33.555Z,987.24
2019-01-22T05:12:33.680Z,987.23
2019-01-22T05:13:33.801Z,987.25
2019-01-22T05:14:33.926Z,987.23
2019-01-22T05:15:34.053Z,987.27
2019-01-22T05:16:34.169Z,987.24
2019-01-22T05:17:34.294Z,987.24
2019-01-22T05:18:34.427Z,987.23
2019-01-22T05:19:34.555Z,987.21
2019-01-22T05:20:34.670Z,987.21
2019-01-22T05:21:34.797Z,987.21
2019-01-22T05:22:34.918Z,987.19
2019-01-22T05:23:35.048Z,987.21
2019-01-22T05:24:35.165Z,987.22
2019-01-22T05:25:35.292Z,987.19
2019-01-22T05:26:35.415Z,987.21
2019-01-22T05:27:35.537Z,987.20
2019-01-22T05:28:35.663Z,987.18
2019-01-22T05:29:35.782Z,987.21
2019-01-22T05:30:35.911Z,987.15
2019-01-22T05:31:36.032Z,987.20
2019-01-22T05:32:36.153Z,987.17
2019-01-22T05:33:36.275Z,987.15
2019-01-22T05:34:36.396Z,987.17
2019-01-22T05:35:36.519Z,987.17
2019-01-22T05:36:36.652Z,987.20
2019-01-22T05:37:36.786Z,987.17
2019-01-22T05:38:36.896Z,987.20
2019-01-22T05:39:37.024Z,987.22
2019-01-22T05:40:37.145Z,987.21
2019-01-22T05:41:37.269Z,987.25
2019-01-22T05:42:37.390Z,987.26
2019-01-22T05:43:37.511Z,987.16
2019-01-22T05:44:37.639Z,987.21
2019-01-22T05:45:37.768Z,987.20
2019-01-22T05:46:37.889Z,987.16
2019-01-22T05:47:38.004Z,987.14
2019-01-22T05:48:38.139Z,987.15
2019-01-22T05:49:38.257Z,987.12
2019-01-22T05:50:38.380Z,987.09
2019-01-22T05:51:38.502Z,987.08
2019-01-22T05:52:38.623Z,987.08
2019-01-22T05:53:38.740Z,987.00
2019-01-22T05:54:38.872Z,987.05
2019-01-22T05:55:38.980Z,987.03
2019-01-22T05:56:39.106Z,987.02
2019-01-22T05:57:39.229Z,986.97
2019-01-22T05:58:39.354Z,986.96
2019-01-22T05:59:39.472Z,986.97
2019-01-22T06:00:39.604Z,986.93
2019-01-22T06:01:39.720Z,986.95
2019-01-22T06:02:39.847Z,986.94
2019-01-22T06:03:39.966Z,986.93
2019-01-22T06:04:40.090Z,986.94
2019-01-22T06:05:40.212Z,986.91
2019-01-22T06:06:40.338Z,986.94
2019-01-22T06:07:40.467Z,986.90
2019-01-22T06:08:40.592Z,986.91
2019-01-22T06:09:40.713Z,986.92
2019-01-22T06:10:40.838Z,986.87
2019-01-22T06:11:40.964Z,986.88
2019-01-22T06:12:41.086Z,986.90
2019-01-22T06:13:41.205Z,986.87
2019-01-22T06:14:41.329Z,986.85
2019-01-22T06:15:41.454Z,986.87
2019-01-22T06:16:41.579Z,986.83
2019-01-22T06:17:41.698Z,986.84
2019-01-22T06:18:41.828Z,986.78
2019-01-22T06:19:41.951Z,986.74
2019-01-22T06:20:42.074Z,986.69
2019-01-22T06:21:42.195Z,986.71
2019-01-22T06:22:42.318Z,986.70
2019-01-22T06:23:42.440Z,986.70
2019-01-22T06:24:42.567Z,986.65
2019-01-22T06:25:49.307Z,986.58
2019-01-22T06:26:42.806Z,986.55
2019-01-22T06:27:42.934Z,986.60
2019-01-22T06:28:43.056Z,986.51
2019-01-22T06:29:43.177Z,986.51
2019-01-22T06:30:43.300Z,986.53
2019-01-22T06:31:43.426Z,986.52
2019-01-22T06:32:43.553Z,986.50
2019-01-22T06:33:43.674Z,986.45
2019-01-22T06:34:43.798Z,986.48
2019-01-22T06:35:43.919Z,986.44
2019-01-22T06:36:44.047Z,986.46
2019-01-22T06:37:44.163Z,986.51
2019-01-22T06:38:44.283Z,986.50
2019-01-22T06:39:44.416Z,986.46
2019-01-22T06:40:44.543Z,986.47
2019-01-22T06:41:44.676Z,986.46
2019-01-22T06:42:44.799Z,986.48
2019-01-22T06:43:44.924Z,986.47
2019-01-22T06:44:45.053Z,986.49
2019-01-22T06:45:45.175Z,986.47
2019-01-22T06:46:45.304Z,986.46
2019-01-22T06:47:45.435Z,986.46
2019-01-22T06:48:45.553Z,986.45
2019-01-22T06:49:45.676Z,986.48
2019-01-22T06:50:45.795Z,986.50
2019-01-22T06:51:45.917Z,986.52
2019-01-22T06:52:46.040Z,986.49
2019-01-22T06:53:46.165Z,986.46
2019-01-22T06:54:46.287Z,986.49
2019-01-22T06:55:46.407Z,986.51
2019-01-22T06:56:46.529Z,986.51
2019-01-22T06:57:46.650Z,986.52
2019-01-22T06:58:46.771Z,986.54
2019-01-22T06:59:46.897Z,986.52
2019-01-22T07:00:47.015Z,986.56
2019-01-22T07:01:47.140Z,986.54
2019-01-22T07:02:47.265Z,986.54
2019-01-22T07:03:47.390Z,986.55
2019-01-22T07:04:47.511Z,986.56
2019-01-22T07:05:47.634Z,986.56
2019-01-22T07:06:47.751Z,986.56
2019-01-22T07:07:47.876Z,986.56
2019-01-22T07:08:47.992Z,986.55
2019-01-22T07:09:48.118Z,986.55
2019-01-22T07:10:48.239Z,986.61
2019-01-22T07:11:48.372Z,986.61
2019-01-22T07:12:48.484Z,986.57
2019-01-22T07:13:48.603Z,986.61
2019-01-22T07:14:48.723Z,986.58
2019-01-22T07:15:48.849Z,986.58
2019-01-22T07:16:48.977Z,986.55
2019-01-22T07:17:49.100Z,986.54
2019-01-22T07:18:49.227Z,986.51
2019-01-22T07:19:49.365Z,986.55
2019-01-22T07:20:49.474Z,986.50
2019-01-22T07:21:49.593Z,986.47
2019-01-22T07:22:49.717Z,986.47
2019-01-22T07:23:49.839Z,986.50
2019-01-22T07:24:49.959Z,986.47
2019-01-22T07:25:50.097Z,986.45
2019-01-22T07:26:50.219Z,986.46
2019-01-22T07:27:50.341Z,986.46
2019-01-22T07:28:50.459Z,986.44
2019-01-22T07:29:50.584Z,986.44
2019-01-22T07:30:50.703Z,986.43
2019-01-22T07:31:50.832Z,986.43
2019-01-22T07:32:50.959Z,986.43
2019-01-22T07:33:51.075Z,986.39
2019-01-22T07:34:51.204Z,986.41
2019-01-22T07:35:51.327Z,986.38
2019-01-22T07:36:51.447Z,986.36
2019-01-22T07:37:51.570Z,986.38
2019-01-22T07:38:51.696Z,986.35
2019-01-22T07:39:51.830Z,986.35
2019-01-22T07:40:51.953Z,986.35
2019-01-22T07:41:52.072Z,986.34
2019-01-22T07:42:52.207Z,986.31
2019-01-22T07:43:52.330Z,986.32
2019-01-22T07:44:52.455Z,986.32
2019-01-22T07:45:52.578Z,986.28
2019-01-22T07:46:52.705Z,986.29
2019-01-22T07:47:52.825Z,986.26
2019-01-22T07:48:52.944Z,986.22
2019-01-22T07:49:53.077Z,986.20
2019-01-22T07:50:53.199Z,986.22
2019-01-22T07:51:53.323Z,986.16
2019-01-22T07:52:53.450Z,986.23
2019-01-22T07:53:53.573Z,986.20
2019-01-22T07:54:55.520Z,986.24
2019-01-22T07:55:53.816Z,986.25
2019-01-22T07:56:54.810Z,986.20
2019-01-22T07:57:54.054Z,986.22
2019-01-22T07:58:54.294Z,986.21
2019-01-22T07:59:54.295Z,986.25
2019-01-22T08:00:54.424Z,986.24
2019-01-22T08:01:54.564Z,986.23
2019-01-22T08:02:54.731Z,986.23
2019-01-22T08:03:54.850Z,986.24
2019-01-22T08:04:54.978Z,986.29
2019-01-22T08:05:55.099Z,986.21
2019-01-22T08:06:55.574Z,986.22
2019-01-22T08:07:55.327Z,986.28
2019-01-22T08:08:55.452Z,986.24
2019-01-22T08:09:55.597Z,986.18
2019-01-22T08:10:55.814Z,986.21
2019-01-22T08:11:55.810Z,986.20
2019-01-22T08:12:55.936Z,986.25
2019-01-22T08:13:56.096Z,986.19
2019-01-22T08:14:56.244Z,986.22
2019-01-22T08:15:56.377Z,986.14
2019-01-22T08:16:56.504Z,986.16
2019-01-22T08:17:56.635Z,986.16
2019-01-22T08:18:56.784Z,986.12
2019-01-22T08:19:56.907Z,986.11
2019-01-22T08:20:57.059Z,986.09
2019-01-22T08:21:57.166Z,986.13
2019-01-22T08:22:57.321Z,986.07
2019-01-22T08:23:57.447Z,986.03
2019-01-22T08:25:00.787Z,986.05
2019-01-22T08:25:57.708Z,986.09
2019-01-22T08:26:59.216Z,986.03
2019-01-22T08:27:57.969Z,985.99
2019-01-22T08:28:58.093Z,985.93
2019-01-22T08:29:58.268Z,985.96
2019-01-22T08:30:58.397Z,985.99
2019-01-22T08:31:58.523Z,985.95
2019-01-22T08:32:58.649Z,985.99
2019-01-22T08:33:58.786Z,985.97
2019-01-22T08:34:58.937Z,985.93
2019-01-22T08:35:59.076Z,985.92
2019-01-22T08:36:59.205Z,985.95
2019-01-22T08:37:59.347Z,985.97
2019-01-22T08:38:59.574Z,985.92
2019-01-22T08:39:59.571Z,985.96
2019-01-22T08:40:59.697Z,985.93
2019-01-22T08:41:59.849Z,985.93
2019-01-22T08:43:01.627Z,985.83
2019-01-22T08:44:00.122Z,985.92
2019-01-22T08:45:00.245Z,985.95
2019-01-22T08:46:00.389Z,985.95
2019-01-22T08:47:07.447Z,985.92
2019-01-22T08:48:00.572Z,985.93
2019-01-22T08:49:00.694Z,985.92
2019-01-22T08:50:00.829Z,985.96
2019-01-22T08:51:01.890Z,985.95
2019-01-22T08:52:01.008Z,985.95
2019-01-22T08:53:01.139Z,985.93
2019-01-22T08:54:01.302Z,985.94
2019-01-22T08:55:07.864Z,985.92
2019-01-22T08:56:01.524Z,985.89
2019-01-22T08:57:01.646Z,985.93
2019-01-22T08:58:01.876Z,985.88
2019-01-22T08:59:01.907Z,985.86
2019-01-22T09:00:02.028Z,985.85
2019-01-22T09:01:02.191Z,985.82
2019-01-22T09:02:02.329Z,985.84
2019-01-22T09:03:02.413Z,985.81
2019-01-22T09:04:02.535Z,985.84
2019-01-22T09:05:02.667Z,985.79
2019-01-22T09:06:02.807Z,985.79
2019-01-22T09:07:02.936Z,985.74
2019-01-22T09:08:03.061Z,985.73
2019-01-22T09:09:03.199Z,985.68
2019-01-22T09:10:03.346Z,985.63
2019-01-22T09:11:18.261Z,985.64
2019-01-22T09:12:03.641Z,985.62
2019-01-22T09:13:03.763Z,985.62
2019-01-22T09:14:03.915Z,985.60
2019-01-22T09:15:04.036Z,985.63
2019-01-22T09:16:04.158Z,985.59
2019-01-22T09:17:04.280Z,985.59
2019-01-22T09:18:04.414Z,985.60
2019-01-22T09:19:04.540Z,985.57
2019-01-22T09:20:04.670Z,985.58
2019-01-22T09:21:04.784Z,985.55
2019-01-22T09:22:04.927Z,985.59
2019-01-22T09:23:05.049Z,985.56
2019-01-22T09:24:05.182Z,985.57
2019-01-22T09:25:05.306Z,985.57
2019-01-22T09:26:05.446Z,985.57
2019-01-22T09:27:14.373Z,985.51
2019-01-22T09:28:05.626Z,985.55
2019-01-22T09:29:05.764Z,985.55
2019-01-22T09:30:05.872Z,985.51
2019-01-22T09:31:06.023Z,985.50
2019-01-22T09:32:06.143Z,985.48
2019-01-22T09:33:06.272Z,985.50
2019-01-22T09:34:06.399Z,985.44
2019-01-22T09:35:10.508Z,985.43
2019-01-22T09:36:06.642Z,985.46
2019-01-22T09:37:06.756Z,985.43
2019-01-22T09:38:06.878Z,985.46
2019-01-22T09:39:07.003Z,985.48
2019-01-22T09:40:07.126Z,985.50
2019-01-22T09:41:07.254Z,985.45
2019-01-22T09:42:07.386Z,985.43
2019-01-22T09:43:07.514Z,985.48
2019-01-22T09:44:07.634Z,985.44
2019-01-22T09:45:08.646Z,985.46
2019-01-22T09:46:07.878Z,985.39
2019-01-22T09:47:08.004Z,985.43
2019-01-22T09:48:08.131Z,985.41
2019-01-22T09:49:08.254Z,985.40
2019-01-22T09:50:08.390Z,985.41
2019-01-22T09:51:08.514Z,985.40
2019-01-22T09:52:08.638Z,985.37
2019-01-22T09:53:08.763Z,985.35
2019-01-22T09:54:09.407Z,985.36
2019-01-22T09:55:09.018Z,985.34
2019-01-22T09:56:09.148Z,985.30
2019-01-22T09:57:09.270Z,985.28
2019-01-22T09:58:09.392Z,985.26
2019-01-22T09:59:09.509Z,985.26
2019-01-22T10:00:09.636Z,985.20
2019-01-22T10:01:09.758Z,985.22
2019-01-22T10:02:09.883Z,985.18
2019-01-22T10:03:10.010Z,985.17
2019-01-22T10:04:10.134Z,985.09
2019-01-22T10:05:10.259Z,985.14
2019-01-22T10:06:10.378Z,985.11
2019-01-22T10:07:10.506Z,985.11
2019-01-22T10:08:10.628Z,985.06
2019-01-22T10:09:10.758Z,985.07
2019-01-22T10:10:10.880Z,985.10
2019-01-22T10:11:11.001Z,985.08
2019-01-22T10:12:11.129Z,985.07
2019-01-22T10:13:11.293Z,985.05
2019-01-22T10:14:11.419Z,985.04
2019-01-22T10:15:11.509Z,985.02
2019-01-22T10:16:11.635Z,985.00
2019-01-22T10:17:12.603Z,984.95
2019-01-22T10:18:11.892Z,984.96
2019-01-22T10:19:12.014Z,984.99
2019-01-22T10:20:12.139Z,984.97
2019-01-22T10:21:12.272Z,984.92
2019-01-22T10:22:12.404Z,984.91
2019-01-22T10:23:14.021Z,984.93
2019-01-22T10:24:12.658Z,984.89
2019-01-22T10:25:12.776Z,984.88
2019-01-22T10:26:12.901Z,984.91
2019-01-22T10:27:13.028Z,984.88
2019-01-22T10:28:13.154Z,984.83
2019-01-22T10:29:13.275Z,984.89
2019-01-22T10:30:13.396Z,984.84
2019-01-22T10:31:13.523Z,984.83
2019-01-22T10:32:13.654Z,984.83
2019-01-22T10:33:13.776Z,984.78
2019-01-22T10:34:13.911Z,984.76
2019-01-22T10:35:14.027Z,984.78
2019-01-22T10:36:14.154Z,984.78
2019-01-22T10:37:14.277Z,984.78
2019-01-22T10:38:14.405Z,984.75
2019-01-22T10:39:17.763Z,984.78
2019-01-22T10:40:14.666Z,984.77
2019-01-22T10:41:14.785Z,984.74
2019-01-22T10:42:14.908Z,984.74
2019-01-22T10:43:15.032Z,984.68
2019-01-22T10:44:15.161Z,984.66
2019-01-22T10:45:15.284Z,984.65
2019-01-22T10:46:15.412Z,984.65
2019-01-22T10:47:15.533Z,984.54
2019-01-22T10:48:15.660Z,984.61
2019-01-22T10:49:15.788Z,984.63
2019-01-22T10:50:15.914Z,984.56
2019-01-22T10:51:16.037Z,984.51
2019-01-22T10:52:16.173Z,984.49
2019-01-22T10:53:16.302Z,984.45
2019-01-22T10:54:16.429Z,984.40
2019-01-22T10:55:16.554Z,984.39
2019-01-22T10:56:16.687Z,984.40
2019-01-22T10:57:16.814Z,984.39
2019-01-22T10:58:16.935Z,984.34
2019-01-22T10:59:17.060Z,984.33
2019-01-22T11:00:17.186Z,984.31
2019-01-22T11:01:17.314Z,984.30
2019-01-22T11:02:17.437Z,984.33
2019-01-22T11:03:17.563Z,984.28
2019-01-22T11:04:17.684Z,984.27
2019-01-22T11:05:17.808Z,984.27
2019-01-22T11:06:17.937Z,984.26
2019-01-22T11:07:18.071Z,984.25
2019-01-22T11:08:18.193Z,984.25
2019-01-22T11:09:18.329Z,984.24
2019-01-22T11:10:18.453Z,984.20
2019-01-22T11:11:18.589Z,984.16
2019-01-22T11:12:18.710Z,984.13
2019-01-22T11:13:18.839Z,984.11
2019-01-22T11:14:18.962Z,984.12
2019-01-22T11:15:19.087Z,984.12
2019-01-22T11:16:19.216Z,984.12
2019-01-22T11:17:19.339Z,984.07
2019-01-22T11:18:19.464Z,984.03
2019-01-22T11:19:19.595Z,984.05
2019-01-22T11:20:19.714Z,984.02
2019-01-22T11:21:19.844Z,983.96
2019-01-22T11:22:19.974Z,983.96
2019-01-22T11:23:20.110Z,983.97
2019-01-22T11:24:20.229Z,983.97
2019-01-22T11:25:20.352Z,983.98
2019-01-22T11:26:20.481Z,983.91
2019-01-22T11:27:20.606Z,983.91
2019-01-22T11:28:20.731Z,983.88
2019-01-22T11:29:20.853Z,983.90
2019-01-22T11:30:20.974Z,983.79
2019-01-22T11:31:21.102Z,983.80
2019-01-22T11:32:21.223Z,983.78
2019-01-22T11:33:21.348Z,983.78
2019-01-22T11:34:21.480Z,983.72
2019-01-22T11:35:21.609Z,983.71
2019-01-22T11:36:21.729Z,983.67
2019-01-22T11:37:21.868Z,983.63
2019-01-22T11:38:21.995Z,983.65
2019-01-22T11:39:22.116Z,983.61
2019-01-22T11:40:22.799Z,983.65
2019-01-22T11:41:22.328Z,983.62
2019-01-22T11:42:22.451Z,983.56
2019-01-22T11:43:22.578Z,983.59
2019-01-22T11:44:22.702Z,983.57
2019-01-22T11:45:22.828Z,983.58
2019-01-22T11:46:22.952Z,983.56
2019-01-22T11:47:23.071Z,983.51
2019-01-22T11:48:23.197Z,983.48
2019-01-22T11:49:23.556Z,983.44
2019-01-22T11:50:23.453Z,983.48
2019-01-22T11:51:23.580Z,983.42
2019-01-22T11:52:23.706Z,983.39
2019-01-22T11:53:23.829Z,983.34
2019-01-22T11:54:24.024Z,983.34
2019-01-22T11:55:24.025Z,983.31
2019-01-22T11:56:24.148Z,983.27
2019-01-22T11:57:24.273Z,983.25
2019-01-22T11:58:24.402Z,983.30
2019-01-22T11:59:24.531Z,983.24
2019-01-22T12:00:24.652Z,983.27
2019-01-22T12:01:24.779Z,983.21
2019-01-22T12:02:24.902Z,983.17
2019-01-22T12:03:25.032Z,983.17
2019-01-22T12:04:25.150Z,983.10
2019-01-22T12:05:25.277Z,983.12
2019-01-22T12:06:25.399Z,983.09
2019-01-22T12:07:25.524Z,983.09
2019-01-22T12:08:25.690Z,983.03
2019-01-22T12:09:25.831Z,983.03
2019-01-22T12:10:25.957Z,983.00
2019-01-22T12:11:26.080Z,983.02
2019-01-22T12:12:26.212Z,983.02
2019-01-22T12:13:26.340Z,982.99
2019-01-22T12:14:26.460Z,982.96
2019-01-22T12:15:26.586Z,982.96
2019-01-22T12:16:26.714Z,982.98
2019-01-22T12:17:26.838Z,982.94
2019-01-22T12:18:26.959Z,982.91
2019-01-22T12:19:27.085Z,982.92
2019-01-22T12:20:27.216Z,982.85
2019-01-22T12:21:27.336Z,982.88
2019-01-22T12:22:27.462Z,982.82
2019-01-22T12:23:27.626Z,982.77
2019-01-22T12:24:27.727Z,982.81
2019-01-22T12:25:27.853Z,982.77
2019-01-22T12:26:27.972Z,982.77
2019-01-22T12:27:28.100Z,982.73
2019-01-22T12:28:29.308Z,982.75
2019-01-22T12:29:28.306Z,982.70
2019-01-22T12:30:28.431Z,982.68